sensor_id;sensor_type;location;lat;lon;timestamp;temperature;humidity
41435;DHT22;27177;22.262;114.192;2022-10-31T00:00:47;22.60;99.90
41435;DHT22;27177;22.262;114.192;2022-10-31T00:03:15;22.70;99.90
41435;DHT22;27177;22.262;114.192;2022-10-31T00:05:43;22.60;99.90
41435;DHT22;27177;22.262;114.192;2022-10-31T00:08:10;22.70;99.90
41435;DHT22;27177;22.262;114.192;2022-10-31T00:10:40;22.60;99.90
41435;DHT22;27177;22.262;114.192;2022-10-31T00:13:08;22.60;99.90
41435;DHT22;27177;22.262;114.192;2022-10-31T00:15:40;22.60;99.90
41435;DHT22;27177;22.262;114.192;2022-10-31T00:18:08;22.60;99.90
41435;DHT22;27177;22.262;114.192;2022-10-31T00:20:35;22.60;99.90
41435;DHT22;27177;22.262;114.192;2022-10-31T00:23:02;22.60;99.90
41435;DHT22;27177;22.262;114.192;2022-10-31T00:25:33;22.60;99.90
41435;DHT22;27177;22.262;114.192;2022-10-31T00:28:02;22.70;99.90
41435;DHT22;27177;22.262;114.192;2022-10-31T00:30:29;22.70;99.90
41435;DHT22;27177;22.262;114.192;2022-10-31T00:32:55;22.80;99.90
41435;DHT22;27177;22.262;114.192;2022-10-31T00:35:22;22.80;99.90
41435;DHT22;27177;22.262;114.192;2022-10-31T00:37:49;22.80;99.90
41435;DHT22;27177;22.262;114.192;2022-10-31T00:40:15;22.90;99.90
41435;DHT22;27177;22.262;114.192;2022-10-31T00:42:42;22.80;99.90
41435;DHT22;27177;22.262;114.192;2022-10-31T00:45:10;22.80;99.90
41435;DHT22;27177;22.262;114.192;2022-10-31T00:47:37;22.70;99.90
41435;DHT22;27177;22.262;114.192;2022-10-31T00:50:05;22.70;99.90
41435;DHT22;27177;22.262;114.192;2022-10-31T00:52:32;22.70;99.90
41435;DHT22;27177;22.262;114.192;2022-10-31T00:54:58;22.80;99.90
41435;DHT22;27177;22.262;114.192;2022-10-31T00:57:25;22.80;99.90
41435;DHT22;27177;22.262;114.192;2022-10-31T00:59:52;22.80;99.90
41435;DHT22;27177;22.262;114.192;2022-10-31T01:02:18;22.90;99.90
41435;DHT22;27177;22.262;114.192;2022-10-31T01:04:45;23.00;99.90
41435;DHT22;27177;22.262;114.192;2022-10-31T01:07:12;23.10;99.90
41435;DHT22;27177;22.262;114.192;2022-10-31T01:09:40;23.10;99.90
41435;DHT22;27177;22.262;114.192;2022-10-31T01:12:06;23.10;99.90
41435;DHT22;27177;22.262;114.192;2022-10-31T01:14:33;23.10;99.90
41435;DHT22;27177;22.262;114.192;2022-10-31T01:17:00;23.20;99.90
41435;DHT22;27177;22.262;114.192;2022-10-31T01:19:27;23.20;99.90
41435;DHT22;27177;22.262;114.192;2022-10-31T01:21:57;23.30;99.90
41435;DHT22;27177;22.262;114.192;2022-10-31T01:24:23;23.30;99.90
41435;DHT22;27177;22.262;114.192;2022-10-31T01:26:50;23.40;99.90
41435;DHT22;27177;22.262;114.192;2022-10-31T01:29:17;23.40;99.90
41435;DHT22;27177;22.262;114.192;2022-10-31T01:31:43;23.50;99.90
41435;DHT22;27177;22.262;114.192;2022-10-31T01:34:14;23.50;99.90
41435;DHT22;27177;22.262;114.192;2022-10-31T01:36:42;23.50;99.90
41435;DHT22;27177;22.262;114.192;2022-10-31T01:39:15;23.60;99.90
41435;DHT22;27177;22.262;114.192;2022-10-31T01:41:48;23.60;99.90
41435;DHT22;27177;22.262;114.192;2022-10-31T01:46:55;23.60;99.90
41435;DHT22;27177;22.262;114.192;2022-10-31T01:52:22;23.70;99.90
41435;DHT22;27177;22.262;114.192;2022-10-31T01:55:15;23.70;99.90
41435;DHT22;27177;22.262;114.192;2022-10-31T01:57:47;23.80;99.90
41435;DHT22;27177;22.262;114.192;2022-10-31T02:00:15;23.70;99.90
41435;DHT22;27177;22.262;114.192;2022-10-31T02:02:42;23.60;99.90
41435;DHT22;27177;22.262;114.192;2022-10-31T02:05:15;23.60;99.90
41435;DHT22;27177;22.262;114.192;2022-10-31T02:07:52;23.50;99.90
41435;DHT22;27177;22.262;114.192;2022-10-31T02:10:22;23.60;99.90
41435;DHT22;27177;22.262;114.192;2022-10-31T02:12:51;23.60;99.90
41435;DHT22;27177;22.262;114.192;2022-10-31T02:15:19;23.60;99.90
41435;DHT22;27177;22.262;114.192;2022-10-31T02:17:46;23.70;99.90
41435;DHT22;27177;22.262;114.192;2022-10-31T02:20:22;23.80;99.90
41435;DHT22;27177;22.262;114.192;2022-10-31T02:31:52;24.00;99.90
41435;DHT22;27177;22.262;114.192;2022-10-31T02:34:43;24.10;99.90
41435;DHT22;27177;22.262;114.192;2022-10-31T02:42:59;24.20;99.90
41435;DHT22;27177;22.262;114.192;2022-10-31T02:45:38;24.30;99.90
41435;DHT22;27177;22.262;114.192;2022-10-31T02:48:14;24.40;99.90
41435;DHT22;27177;22.262;114.192;2022-10-31T02:50:52;24.30;99.90
41435;DHT22;27177;22.262;114.192;2022-10-31T02:53:22;24.30;99.90
41435;DHT22;27177;22.262;114.192;2022-10-31T02:55:58;24.30;99.90
41435;DHT22;27177;22.262;114.192;2022-10-31T02:58:29;24.30;99.90
41435;DHT22;27177;22.262;114.192;2022-10-31T03:04:21;24.30;99.90
41435;DHT22;27177;22.262;114.192;2022-10-31T03:12:08;24.40;99.90
41435;DHT22;27177;22.262;114.192;2022-10-31T03:15:13;24.50;99.90
41435;DHT22;27177;22.262;114.192;2022-10-31T03:18:08;24.40;99.90
41435;DHT22;27177;22.262;114.192;2022-10-31T03:20:52;24.50;99.90
41435;DHT22;27177;22.262;114.192;2022-10-31T03:23:22;24.50;99.90
41435;DHT22;27177;22.262;114.192;2022-10-31T03:25:52;24.60;99.90
41435;DHT22;27177;22.262;114.192;2022-10-31T03:28:26;24.60;99.90
41435;DHT22;27177;22.262;114.192;2022-10-31T03:30:55;24.60;99.90
41435;DHT22;27177;22.262;114.192;2022-10-31T03:33:26;24.60;99.90
41435;DHT22;27177;22.262;114.192;2022-10-31T03:35:56;24.60;99.90
41435;DHT22;27177;22.262;114.192;2022-10-31T03:38:23;24.60;99.90
41435;DHT22;27177;22.262;114.192;2022-10-31T03:40:52;24.70;99.90
41435;DHT22;27177;22.262;114.192;2022-10-31T03:43:26;24.70;99.90
41435;DHT22;27177;22.262;114.192;2022-10-31T03:45:55;24.70;99.90
41435;DHT22;27177;22.262;114.192;2022-10-31T03:48:23;24.80;99.90
41435;DHT22;27177;22.262;114.192;2022-10-31T03:51:02;24.80;99.90
41435;DHT22;27177;22.262;114.192;2022-10-31T03:53:51;24.90;99.90
41435;DHT22;27177;22.262;114.192;2022-10-31T03:56:32;24.90;99.90
41435;DHT22;27177;22.262;114.192;2022-10-31T03:59:14;24.90;99.90
41435;DHT22;27177;22.262;114.192;2022-10-31T04:01:48;25.00;99.90
41435;DHT22;27177;22.262;114.192;2022-10-31T04:04:15;25.00;99.90
41435;DHT22;27177;22.262;114.192;2022-10-31T04:06:43;25.00;99.90
41435;DHT22;27177;22.262;114.192;2022-10-31T04:09:11;25.10;99.90
41435;DHT22;27177;22.262;114.192;2022-10-31T04:11:54;25.10;99.90
41435;DHT22;27177;22.262;114.192;2022-10-31T04:14:24;25.10;99.90
41435;DHT22;27177;22.262;114.192;2022-10-31T04:16:51;25.20;99.90
41435;DHT22;27177;22.262;114.192;2022-10-31T04:19:18;25.20;99.90
41435;DHT22;27177;22.262;114.192;2022-10-31T04:21:45;25.20;99.90
41435;DHT22;27177;22.262;114.192;2022-10-31T04:24:12;25.40;99.90
41435;DHT22;27177;22.262;114.192;2022-10-31T04:26:39;25.40;99.90
41435;DHT22;27177;22.262;114.192;2022-10-31T04:29:05;25.40;99.90
41435;DHT22;27177;22.262;114.192;2022-10-31T04:31:33;25.30;99.90
41435;DHT22;27177;22.262;114.192;2022-10-31T04:34:01;25.30;99.90
41435;DHT22;27177;22.262;114.192;2022-10-31T04:36:28;25.30;99.90
41435;DHT22;27177;22.262;114.192;2022-10-31T04:38:55;25.30;99.90
41435;DHT22;27177;22.262;114.192;2022-10-31T04:41:22;25.30;99.90
41435;DHT22;27177;22.262;114.192;2022-10-31T04:43:48;25.30;99.90
41435;DHT22;27177;22.262;114.192;2022-10-31T04:48:50;25.20;99.90
41435;DHT22;27177;22.262;114.192;2022-10-31T04:51:17;25.20;99.90
41435;DHT22;27177;22.262;114.192;2022-10-31T04:53:44;25.20;99.90
41435;DHT22;27177;22.262;114.192;2022-10-31T04:56:10;25.10;99.90
41435;DHT22;27177;22.262;114.192;2022-10-31T04:58:37;25.20;99.90
41435;DHT22;27177;22.262;114.192;2022-10-31T05:01:04;25.20;99.90
41435;DHT22;27177;22.262;114.192;2022-10-31T05:03:31;25.10;99.90
41435;DHT22;27177;22.262;114.192;2022-10-31T05:05:58;25.10;99.90
41435;DHT22;27177;22.262;114.192;2022-10-31T05:08:24;25.20;99.90
41435;DHT22;27177;22.262;114.192;2022-10-31T05:10:51;25.10;99.90
41435;DHT22;27177;22.262;114.192;2022-10-31T05:13:18;25.20;99.90
41435;DHT22;27177;22.262;114.192;2022-10-31T05:15:44;25.20;99.90
41435;DHT22;27177;22.262;114.192;2022-10-31T05:18:15;25.10;99.90
41435;DHT22;27177;22.262;114.192;2022-10-31T05:20:41;25.10;99.90
41435;DHT22;27177;22.262;114.192;2022-10-31T05:23:08;25.10;99.90
41435;DHT22;27177;22.262;114.192;2022-10-31T05:25:35;25.10;99.90
41435;DHT22;27177;22.262;114.192;2022-10-31T05:28:02;25.10;99.90
41435;DHT22;27177;22.262;114.192;2022-10-31T05:30:31;25.10;99.90
41435;DHT22;27177;22.262;114.192;2022-10-31T05:32:58;25.10;99.90
41435;DHT22;27177;22.262;114.192;2022-10-31T05:35:28;25.20;99.90
41435;DHT22;27177;22.262;114.192;2022-10-31T05:37:55;25.20;99.90
41435;DHT22;27177;22.262;114.192;2022-10-31T05:40:24;25.10;99.90
41435;DHT22;27177;22.262;114.192;2022-10-31T05:42:52;25.20;99.90
41435;DHT22;27177;22.262;114.192;2022-10-31T05:45:20;25.20;99.90
41435;DHT22;27177;22.262;114.192;2022-10-31T05:48:05;25.20;99.90
41435;DHT22;27177;22.262;114.192;2022-10-31T05:50:32;25.20;99.90
41435;DHT22;27177;22.262;114.192;2022-10-31T05:53:01;25.20;99.90
41435;DHT22;27177;22.262;114.192;2022-10-31T05:55:29;25.20;99.90
41435;DHT22;27177;22.262;114.192;2022-10-31T05:57:57;25.10;99.90
41435;DHT22;27177;22.262;114.192;2022-10-31T06:00:25;25.10;99.90
41435;DHT22;27177;22.262;114.192;2022-10-31T06:03:03;25.10;99.90
41435;DHT22;27177;22.262;114.192;2022-10-31T06:05:30;25.10;99.90
41435;DHT22;27177;22.262;114.192;2022-10-31T06:07:57;25.10;99.90
41435;DHT22;27177;22.262;114.192;2022-10-31T06:10:25;25.10;99.90
41435;DHT22;27177;22.262;114.192;2022-10-31T06:12:52;25.20;99.90
41435;DHT22;27177;22.262;114.192;2022-10-31T06:15:26;25.20;99.90
41435;DHT22;27177;22.262;114.192;2022-10-31T06:18:03;25.20;99.90
41435;DHT22;27177;22.262;114.192;2022-10-31T06:20:31;25.30;99.90
41435;DHT22;27177;22.262;114.192;2022-10-31T06:22:58;25.30;99.90
41435;DHT22;27177;22.262;114.192;2022-10-31T06:25:26;25.30;99.90
41435;DHT22;27177;22.262;114.192;2022-10-31T06:27:53;25.30;99.90
41435;DHT22;27177;22.262;114.192;2022-10-31T06:30:20;25.20;99.90
41435;DHT22;27177;22.262;114.192;2022-10-31T06:32:47;25.20;99.90
41435;DHT22;27177;22.262;114.192;2022-10-31T06:35:15;25.30;99.90
41435;DHT22;27177;22.262;114.192;2022-10-31T06:37:42;25.30;99.90
41435;DHT22;27177;22.262;114.192;2022-10-31T06:40:10;25.30;99.90
41435;DHT22;27177;22.262;114.192;2022-10-31T06:42:37;25.30;99.90
41435;DHT22;27177;22.262;114.192;2022-10-31T06:45:04;25.40;99.90
41435;DHT22;27177;22.262;114.192;2022-10-31T06:47:31;25.30;99.90
41435;DHT22;27177;22.262;114.192;2022-10-31T06:49:58;25.30;99.90
41435;DHT22;27177;22.262;114.192;2022-10-31T06:52:25;25.30;99.90
41435;DHT22;27177;22.262;114.192;2022-10-31T06:54:52;25.30;99.90
41435;DHT22;27177;22.262;114.192;2022-10-31T06:57:18;25.20;99.90
41435;DHT22;27177;22.262;114.192;2022-10-31T06:59:45;25.20;99.80
41435;DHT22;27177;22.262;114.192;2022-10-31T07:02:13;25.20;99.90
41435;DHT22;27177;22.262;114.192;2022-10-31T07:04:40;25.10;99.90
41435;DHT22;27177;22.262;114.192;2022-10-31T07:07:09;25.00;99.90
41435;DHT22;27177;22.262;114.192;2022-10-31T07:09:36;25.10;99.90
41435;DHT22;27177;22.262;114.192;2022-10-31T07:12:03;25.10;99.90
41435;DHT22;27177;22.262;114.192;2022-10-31T07:14:30;25.00;99.90
41435;DHT22;27177;22.262;114.192;2022-10-31T07:16:57;25.10;99.90
41435;DHT22;27177;22.262;114.192;2022-10-31T07:19:24;25.10;99.90
41435;DHT22;27177;22.262;114.192;2022-10-31T07:21:51;25.10;99.90
41435;DHT22;27177;22.262;114.192;2022-10-31T07:24:18;25.10;99.90
41435;DHT22;27177;22.262;114.192;2022-10-31T07:26:46;25.10;99.80
41435;DHT22;27177;22.262;114.192;2022-10-31T07:29:13;25.10;99.90
41435;DHT22;27177;22.262;114.192;2022-10-31T07:31:40;25.10;99.90
41435;DHT22;27177;22.262;114.192;2022-10-31T07:34:07;25.20;99.90
41435;DHT22;27177;22.262;114.192;2022-10-31T07:36:37;25.20;99.80
41435;DHT22;27177;22.262;114.192;2022-10-31T07:39:04;25.20;99.90
41435;DHT22;27177;22.262;114.192;2022-10-31T07:41:31;25.20;99.70
41435;DHT22;27177;22.262;114.192;2022-10-31T07:43:57;25.20;99.80
41435;DHT22;27177;22.262;114.192;2022-10-31T07:46:24;25.20;99.90
41435;DHT22;27177;22.262;114.192;2022-10-31T07:48:51;25.20;99.90
41435;DHT22;27177;22.262;114.192;2022-10-31T07:51:18;25.20;99.90
41435;DHT22;27177;22.262;114.192;2022-10-31T07:53:45;25.20;99.90
41435;DHT22;27177;22.262;114.192;2022-10-31T07:56:12;25.20;99.70
41435;DHT22;27177;22.262;114.192;2022-10-31T07:58:39;25.20;99.80
41435;DHT22;27177;22.262;114.192;2022-10-31T08:01:06;25.20;99.70
41435;DHT22;27177;22.262;114.192;2022-10-31T08:03:33;25.20;99.70
41435;DHT22;27177;22.262;114.192;2022-10-31T08:06:00;25.20;99.70
41435;DHT22;27177;22.262;114.192;2022-10-31T08:08:27;25.10;99.70
41435;DHT22;27177;22.262;114.192;2022-10-31T08:10:54;25.10;99.90
41435;DHT22;27177;22.262;114.192;2022-10-31T08:13:26;25.10;99.70
41435;DHT22;27177;22.262;114.192;2022-10-31T08:15:53;25.10;99.70
41435;DHT22;27177;22.262;114.192;2022-10-31T08:18:21;25.10;99.80
41435;DHT22;27177;22.262;114.192;2022-10-31T08:20:49;25.10;99.80
41435;DHT22;27177;22.262;114.192;2022-10-31T08:23:16;25.10;99.70
41435;DHT22;27177;22.262;114.192;2022-10-31T08:25:43;25.10;99.60
41435;DHT22;27177;22.262;114.192;2022-10-31T08:28:13;25.10;99.60
41435;DHT22;27177;22.262;114.192;2022-10-31T08:30:41;25.10;99.60
41435;DHT22;27177;22.262;114.192;2022-10-31T08:33:11;25.10;99.60
41435;DHT22;27177;22.262;114.192;2022-10-31T08:35:38;25.10;99.50
41435;DHT22;27177;22.262;114.192;2022-10-31T08:38:05;25.10;99.30
41435;DHT22;27177;22.262;114.192;2022-10-31T08:40:34;25.10;99.40
41435;DHT22;27177;22.262;114.192;2022-10-31T08:43:04;25.10;99.40
41435;DHT22;27177;22.262;114.192;2022-10-31T08:45:32;25.10;99.50
41435;DHT22;27177;22.262;114.192;2022-10-31T08:48:07;25.10;99.40
41435;DHT22;27177;22.262;114.192;2022-10-31T08:50:36;25.10;99.30
41435;DHT22;27177;22.262;114.192;2022-10-31T08:53:06;25.10;99.30
41435;DHT22;27177;22.262;114.192;2022-10-31T08:55:35;25.10;99.40
41435;DHT22;27177;22.262;114.192;2022-10-31T08:58:06;25.10;99.20
41435;DHT22;27177;22.262;114.192;2022-10-31T09:00:34;25.10;99.20
41435;DHT22;27177;22.262;114.192;2022-10-31T09:03:06;25.10;99.30
41435;DHT22;27177;22.262;114.192;2022-10-31T09:05:37;25.10;99.20
41435;DHT22;27177;22.262;114.192;2022-10-31T09:08:05;25.10;99.20
41435;DHT22;27177;22.262;114.192;2022-10-31T09:10:36;25.10;99.10
41435;DHT22;27177;22.262;114.192;2022-10-31T09:13:06;25.10;99.30
41435;DHT22;27177;22.262;114.192;2022-10-31T09:15:35;25.10;99.20
41435;DHT22;27177;22.262;114.192;2022-10-31T09:18:03;25.00;99.20
41435;DHT22;27177;22.262;114.192;2022-10-31T09:20:32;25.00;99.20
41435;DHT22;27177;22.262;114.192;2022-10-31T09:23:03;25.00;99.40
41435;DHT22;27177;22.262;114.192;2022-10-31T09:25:30;25.00;99.20
41435;DHT22;27177;22.262;114.192;2022-10-31T09:27:59;24.90;99.20
41435;DHT22;27177;22.262;114.192;2022-10-31T09:30:28;24.90;99.20
41435;DHT22;27177;22.262;114.192;2022-10-31T09:33:00;24.90;99.10
41435;DHT22;27177;22.262;114.192;2022-10-31T09:35:28;24.90;99.00
41435;DHT22;27177;22.262;114.192;2022-10-31T09:38:06;24.90;99.00
41435;DHT22;27177;22.262;114.192;2022-10-31T09:40:40;24.90;99.00
41435;DHT22;27177;22.262;114.192;2022-10-31T09:54:58;24.90;98.70
41435;DHT22;27177;22.262;114.192;2022-10-31T09:57:32;24.90;98.80
41435;DHT22;27177;22.262;114.192;2022-10-31T10:00:01;24.90;98.60
41435;DHT22;27177;22.262;114.192;2022-10-31T10:05:25;24.90;98.60
41435;DHT22;27177;22.262;114.192;2022-10-31T10:07:59;24.90;98.50
41435;DHT22;27177;22.262;114.192;2022-10-31T10:10:49;24.90;98.40
41435;DHT22;27177;22.262;114.192;2022-10-31T10:16:19;25.00;98.30
41435;DHT22;27177;22.262;114.192;2022-10-31T10:29:53;24.90;98.20
41435;DHT22;27177;22.262;114.192;2022-10-31T10:32:26;24.90;98.10
41435;DHT22;27177;22.262;114.192;2022-10-31T10:34:59;24.90;98.20
41435;DHT22;27177;22.262;114.192;2022-10-31T10:37:36;24.90;98.00
41435;DHT22;27177;22.262;114.192;2022-10-31T10:40:24;24.90;98.00
41435;DHT22;27177;22.262;114.192;2022-10-31T10:43:12;24.90;97.90
41435;DHT22;27177;22.262;114.192;2022-10-31T10:46:18;24.90;97.80
41435;DHT22;27177;22.262;114.192;2022-10-31T10:51:41;24.90;97.70
41435;DHT22;27177;22.262;114.192;2022-10-31T10:54:16;24.90;97.80
41435;DHT22;27177;22.262;114.192;2022-10-31T10:57:18;24.90;97.80
41435;DHT22;27177;22.262;114.192;2022-10-31T10:59:51;24.90;97.80
41435;DHT22;27177;22.262;114.192;2022-10-31T11:02:23;24.90;97.70
41435;DHT22;27177;22.262;114.192;2022-10-31T11:04:57;24.90;97.60
41435;DHT22;27177;22.262;114.192;2022-10-31T11:07:24;24.90;97.60
41435;DHT22;27177;22.262;114.192;2022-10-31T11:10:02;24.90;97.60
41435;DHT22;27177;22.262;114.192;2022-10-31T11:12:32;25.00;97.40
41435;DHT22;27177;22.262;114.192;2022-10-31T11:15:07;25.00;97.40
41435;DHT22;27177;22.262;114.192;2022-10-31T11:17:42;25.00;97.30
41435;DHT22;27177;22.262;114.192;2022-10-31T11:22:41;24.90;97.40
41435;DHT22;27177;22.262;114.192;2022-10-31T11:25:24;25.00;97.30
41435;DHT22;27177;22.262;114.192;2022-10-31T11:28:05;25.00;97.20
41435;DHT22;27177;22.262;114.192;2022-10-31T11:30:42;25.00;97.20
41435;DHT22;27177;22.262;114.192;2022-10-31T11:33:25;25.00;97.20
41435;DHT22;27177;22.262;114.192;2022-10-31T11:35:53;24.90;97.10
41435;DHT22;27177;22.262;114.192;2022-10-31T11:38:23;24.90;97.20
41435;DHT22;27177;22.262;114.192;2022-10-31T11:41:10;24.90;97.20
41435;DHT22;27177;22.262;114.192;2022-10-31T11:43:44;25.00;97.00
41435;DHT22;27177;22.262;114.192;2022-10-31T11:46:18;24.90;97.20
41435;DHT22;27177;22.262;114.192;2022-10-31T11:48:53;24.90;97.00
41435;DHT22;27177;22.262;114.192;2022-10-31T11:51:26;25.00;97.00
41435;DHT22;27177;22.262;114.192;2022-10-31T11:54:03;24.90;96.90
41435;DHT22;27177;22.262;114.192;2022-10-31T11:56:40;25.00;96.70
41435;DHT22;27177;22.262;114.192;2022-10-31T11:59:33;24.90;96.80
41435;DHT22;27177;22.262;114.192;2022-10-31T12:02:01;25.00;96.80
41435;DHT22;27177;22.262;114.192;2022-10-31T12:04:45;24.90;96.60
41435;DHT22;27177;22.262;114.192;2022-10-31T12:07:13;24.90;96.70
41435;DHT22;27177;22.262;114.192;2022-10-31T12:09:41;24.90;96.70
41435;DHT22;27177;22.262;114.192;2022-10-31T12:15:27;24.90;96.70
41435;DHT22;27177;22.262;114.192;2022-10-31T12:18:35;24.90;96.50
41435;DHT22;27177;22.262;114.192;2022-10-31T12:23:51;24.90;96.30
41435;DHT22;27177;22.262;114.192;2022-10-31T12:26:22;24.90;96.50
41435;DHT22;27177;22.262;114.192;2022-10-31T12:32:28;24.80;96.40
41435;DHT22;27177;22.262;114.192;2022-10-31T12:45:56;24.80;96.20
41435;DHT22;27177;22.262;114.192;2022-10-31T12:54:14;24.70;96.30
41435;DHT22;27177;22.262;114.192;2022-10-31T13:00:18;24.70;96.10
41435;DHT22;27177;22.262;114.192;2022-10-31T13:05:47;24.70;96.10
41435;DHT22;27177;22.262;114.192;2022-10-31T13:08:40;24.70;96.20
41435;DHT22;27177;22.262;114.192;2022-10-31T13:11:16;24.70;96.10
41435;DHT22;27177;22.262;114.192;2022-10-31T13:14:10;24.70;96.10
41435;DHT22;27177;22.262;114.192;2022-10-31T13:16:45;24.70;96.10
41435;DHT22;27177;22.262;114.192;2022-10-31T13:19:27;24.60;96.20
41435;DHT22;27177;22.262;114.192;2022-10-31T13:27:24;24.60;96.30
41435;DHT22;27177;22.262;114.192;2022-10-31T13:30:34;24.60;96.30
41435;DHT22;27177;22.262;114.192;2022-10-31T13:33:30;24.60;96.40
41435;DHT22;27177;22.262;114.192;2022-10-31T13:44:25;24.50;96.40
41435;DHT22;27177;22.262;114.192;2022-10-31T13:46:56;24.50;96.30
41435;DHT22;27177;22.262;114.192;2022-10-31T13:54:48;24.50;96.50
41435;DHT22;27177;22.262;114.192;2022-10-31T13:57:50;24.50;96.40
41435;DHT22;27177;22.262;114.192;2022-10-31T14:02:56;24.50;96.40
41435;DHT22;27177;22.262;114.192;2022-10-31T14:05:52;24.50;96.40
41435;DHT22;27177;22.262;114.192;2022-10-31T14:08:22;24.40;96.50
41435;DHT22;27177;22.262;114.192;2022-10-31T14:10:51;24.40;96.30
41435;DHT22;27177;22.262;114.192;2022-10-31T14:14:02;24.40;96.50
41435;DHT22;27177;22.262;114.192;2022-10-31T14:16:26;24.40;96.60
41435;DHT22;27177;22.262;114.192;2022-10-31T14:21:37;24.40;96.60
41435;DHT22;27177;22.262;114.192;2022-10-31T14:24:15;24.30;96.60
41435;DHT22;27177;22.262;114.192;2022-10-31T14:26:57;24.30;96.80
41435;DHT22;27177;22.262;114.192;2022-10-31T14:29:29;24.30;96.70
41435;DHT22;27177;22.262;114.192;2022-10-31T14:34:50;24.30;96.70
41435;DHT22;27177;22.262;114.192;2022-10-31T14:37:27;24.20;96.70
41435;DHT22;27177;22.262;114.192;2022-10-31T14:50:53;24.20;96.80
41435;DHT22;27177;22.262;114.192;2022-10-31T14:53:50;24.20;97.10
41435;DHT22;27177;22.262;114.192;2022-10-31T14:56:27;24.20;97.00
41435;DHT22;27177;22.262;114.192;2022-10-31T14:59:13;24.10;97.10
41435;DHT22;27177;22.262;114.192;2022-10-31T15:04:35;24.10;97.00
41435;DHT22;27177;22.262;114.192;2022-10-31T15:07:11;24.00;97.00
41435;DHT22;27177;22.262;114.192;2022-10-31T15:09:39;24.00;97.20
41435;DHT22;27177;22.262;114.192;2022-10-31T15:12:33;24.00;97.10
41435;DHT22;27177;22.262;114.192;2022-10-31T15:15:36;24.00;97.20
41435;DHT22;27177;22.262;114.192;2022-10-31T15:18:05;24.00;97.40
41435;DHT22;27177;22.262;114.192;2022-10-31T15:20:41;23.90;97.30
41435;DHT22;27177;22.262;114.192;2022-10-31T15:23:28;24.00;97.30
41435;DHT22;27177;22.262;114.192;2022-10-31T15:26:03;24.00;97.40
41435;DHT22;27177;22.262;114.192;2022-10-31T15:28:31;23.90;97.40
41435;DHT22;27177;22.262;114.192;2022-10-31T15:31:00;23.90;97.40
41435;DHT22;27177;22.262;114.192;2022-10-31T15:33:30;23.90;97.50
41435;DHT22;27177;22.262;114.192;2022-10-31T15:35:59;24.00;97.40
41435;DHT22;27177;22.262;114.192;2022-10-31T15:38:29;24.00;97.40
41435;DHT22;27177;22.262;114.192;2022-10-31T15:41:02;23.90;97.50
41435;DHT22;27177;22.262;114.192;2022-10-31T15:43:35;23.90;97.60
41435;DHT22;27177;22.262;114.192;2022-10-31T15:46:06;23.90;97.50
41435;DHT22;27177;22.262;114.192;2022-10-31T15:48:33;23.90;97.60
41435;DHT22;27177;22.262;114.192;2022-10-31T15:51:01;23.80;97.70
41435;DHT22;27177;22.262;114.192;2022-10-31T15:56:04;23.80;97.60
41435;DHT22;27177;22.262;114.192;2022-10-31T15:58:43;23.80;97.70
41435;DHT22;27177;22.262;114.192;2022-10-31T16:06:39;23.70;97.80
41435;DHT22;27177;22.262;114.192;2022-10-31T16:09:21;23.70;97.80
41435;DHT22;27177;22.262;114.192;2022-10-31T16:11:48;23.70;97.90
41435;DHT22;27177;22.262;114.192;2022-10-31T16:14:18;23.70;98.00
41435;DHT22;27177;22.262;114.192;2022-10-31T16:16:48;23.70;98.10
41435;DHT22;27177;22.262;114.192;2022-10-31T16:19:31;23.70;97.90
41435;DHT22;27177;22.262;114.192;2022-10-31T16:22:11;23.60;98.10
41435;DHT22;27177;22.262;114.192;2022-10-31T16:24:51;23.60;98.10
41435;DHT22;27177;22.262;114.192;2022-10-31T16:27:28;23.60;98.20
41435;DHT22;27177;22.262;114.192;2022-10-31T16:29:58;23.60;98.10
41435;DHT22;27177;22.262;114.192;2022-10-31T16:32:52;23.60;98.30
41435;DHT22;27177;22.262;114.192;2022-10-31T16:37:59;23.60;98.50
41435;DHT22;27177;22.262;114.192;2022-10-31T16:40:26;23.50;98.40
41435;DHT22;27177;22.262;114.192;2022-10-31T16:42:53;23.50;98.40
41435;DHT22;27177;22.262;114.192;2022-10-31T16:45:25;23.50;98.60
41435;DHT22;27177;22.262;114.192;2022-10-31T16:47:52;23.50;98.60
41435;DHT22;27177;22.262;114.192;2022-10-31T16:50:23;23.50;98.60
41435;DHT22;27177;22.262;114.192;2022-10-31T16:52:50;23.40;98.50
41435;DHT22;27177;22.262;114.192;2022-10-31T16:55:18;23.40;98.50
41435;DHT22;27177;22.262;114.192;2022-10-31T16:57:51;23.40;98.60
41435;DHT22;27177;22.262;114.192;2022-10-31T17:00:23;23.40;98.60
41435;DHT22;27177;22.262;114.192;2022-10-31T17:02:55;23.40;98.80
41435;DHT22;27177;22.262;114.192;2022-10-31T17:05:25;23.30;98.80
41435;DHT22;27177;22.262;114.192;2022-10-31T17:07:58;23.30;98.80
41435;DHT22;27177;22.262;114.192;2022-10-31T17:10:26;23.30;98.90
41435;DHT22;27177;22.262;114.192;2022-10-31T17:12:53;23.30;98.90
41435;DHT22;27177;22.262;114.192;2022-10-31T17:15:25;23.30;98.90
41435;DHT22;27177;22.262;114.192;2022-10-31T17:17:52;23.30;98.80
41435;DHT22;27177;22.262;114.192;2022-10-31T17:20:22;23.20;98.90
41435;DHT22;27177;22.262;114.192;2022-10-31T17:22:49;23.20;98.80
41435;DHT22;27177;22.262;114.192;2022-10-31T17:25:18;23.20;98.90
41435;DHT22;27177;22.262;114.192;2022-10-31T17:27:45;23.20;99.00
41435;DHT22;27177;22.262;114.192;2022-10-31T17:30:12;23.20;99.10
41435;DHT22;27177;22.262;114.192;2022-10-31T17:32:40;23.10;98.90
41435;DHT22;27177;22.262;114.192;2022-10-31T17:35:08;23.10;99.00
41435;DHT22;27177;22.262;114.192;2022-10-31T17:37:35;23.10;99.20
41435;DHT22;27177;22.262;114.192;2022-10-31T17:40:02;23.10;99.30
41435;DHT22;27177;22.262;114.192;2022-10-31T17:42:29;23.00;99.40
41435;DHT22;27177;22.262;114.192;2022-10-31T17:44:58;23.00;99.30
41435;DHT22;27177;22.262;114.192;2022-10-31T17:47:25;23.00;99.30
41435;DHT22;27177;22.262;114.192;2022-10-31T17:49:52;23.00;99.40
41435;DHT22;27177;22.262;114.192;2022-10-31T17:52:21;23.00;99.50
41435;DHT22;27177;22.262;114.192;2022-10-31T17:54:48;23.00;99.40
41435;DHT22;27177;22.262;114.192;2022-10-31T17:57:15;23.00;99.50
41435;DHT22;27177;22.262;114.192;2022-10-31T17:59:42;23.00;99.60